sensor_id;sensor_type;location;lat;lon;timestamp;temperature;humidity
6439;DHT22;3252;52.540;13.290;2024-01-30T00:00:36;18.30;83.10
6439;DHT22;3252;52.540;13.290;2024-01-30T00:02:39;18.30;83.20
6439;DHT22;3252;52.540;13.290;2024-01-30T00:04:42;18.30;83.50
6439;DHT22;3252;52.540;13.290;2024-01-30T00:06:44;18.30;83.50
6439;DHT22;3252;52.540;13.290;2024-01-30T00:08:47;18.30;83.80
6439;DHT22;3252;52.540;13.290;2024-01-30T00:10:49;18.30;84.00
6439;DHT22;3252;52.540;13.290;2024-01-30T00:12:53;18.30;84.10
6439;DHT22;3252;52.540;13.290;2024-01-30T00:14:55;18.30;84.20
6439;DHT22;3252;52.540;13.290;2024-01-30T00:16:58;18.30;84.30
6439;DHT22;3252;52.540;13.290;2024-01-30T00:19:01;18.30;84.50
6439;DHT22;3252;52.540;13.290;2024-01-30T00:21:03;18.30;84.50
6439;DHT22;3252;52.540;13.290;2024-01-30T00:23:06;18.30;84.50
6439;DHT22;3252;52.540;13.290;2024-01-30T00:25:08;18.30;84.60
6439;DHT22;3252;52.540;13.290;2024-01-30T00:27:10;18.30;84.60
6439;DHT22;3252;52.540;13.290;2024-01-30T00:29:13;18.30;84.80
6439;DHT22;3252;52.540;13.290;2024-01-30T00:31:20;18.30;84.80
6439;DHT22;3252;52.540;13.290;2024-01-30T00:33:22;18.30;84.90
6439;DHT22;3252;52.540;13.290;2024-01-30T00:35:24;18.30;85.10
6439;DHT22;3252;52.540;13.290;2024-01-30T00:37:26;18.30;85.20
6439;DHT22;3252;52.540;13.290;2024-01-30T00:39:28;18.30;85.30
6439;DHT22;3252;52.540;13.290;2024-01-30T00:41:29;18.30;85.50
6439;DHT22;3252;52.540;13.290;2024-01-30T00:43:31;18.30;86.30
6439;DHT22;3252;52.540;13.290;2024-01-30T00:45:34;18.30;85.70
6439;DHT22;3252;52.540;13.290;2024-01-30T00:47:37;18.30;85.60
6439;DHT22;3252;52.540;13.290;2024-01-30T00:49:39;18.30;85.70
6439;DHT22;3252;52.540;13.290;2024-01-30T00:51:41;18.30;85.70
6439;DHT22;3252;52.540;13.290;2024-01-30T00:53:43;18.30;85.80
6439;DHT22;3252;52.540;13.290;2024-01-30T00:55:45;18.30;86.00
6439;DHT22;3252;52.540;13.290;2024-01-30T00:57:47;18.30;86.00
6439;DHT22;3252;52.540;13.290;2024-01-30T00:59:49;18.30;86.00
6439;DHT22;3252;52.540;13.290;2024-01-30T01:01:53;18.30;86.10
6439;DHT22;3252;52.540;13.290;2024-01-30T01:03:55;18.30;86.20
6439;DHT22;3252;52.540;13.290;2024-01-30T01:05:57;18.30;86.20
6439;DHT22;3252;52.540;13.290;2024-01-30T01:07:59;18.30;86.30
6439;DHT22;3252;52.540;13.290;2024-01-30T01:10:00;18.30;86.40
6439;DHT22;3252;52.540;13.290;2024-01-30T01:12:03;18.30;86.40
6439;DHT22;3252;52.540;13.290;2024-01-30T01:14:05;18.30;86.50
6439;DHT22;3252;52.540;13.290;2024-01-30T01:16:07;18.30;86.60
6439;DHT22;3252;52.540;13.290;2024-01-30T01:18:11;18.30;86.50
6439;DHT22;3252;52.540;13.290;2024-01-30T01:20:13;18.30;86.60
6439;DHT22;3252;52.540;13.290;2024-01-30T01:22:16;18.30;86.60
6439;DHT22;3252;52.540;13.290;2024-01-30T01:24:17;18.30;86.80
6439;DHT22;3252;52.540;13.290;2024-01-30T01:26:20;18.30;86.80
6439;DHT22;3252;52.540;13.290;2024-01-30T01:28:22;18.30;86.90
6439;DHT22;3252;52.540;13.290;2024-01-30T01:30:24;18.30;86.90
6439;DHT22;3252;52.540;13.290;2024-01-30T01:32:26;18.30;87.00
6439;DHT22;3252;52.540;13.290;2024-01-30T01:34:30;18.30;87.00
6439;DHT22;3252;52.540;13.290;2024-01-30T01:36:32;18.30;87.20
6439;DHT22;3252;52.540;13.290;2024-01-30T01:38:34;18.20;87.10
6439;DHT22;3252;52.540;13.290;2024-01-30T01:40:36;18.20;87.20
6439;DHT22;3252;52.540;13.290;2024-01-30T01:42:40;18.20;87.30
6439;DHT22;3252;52.540;13.290;2024-01-30T01:44:42;18.20;87.40
6439;DHT22;3252;52.540;13.290;2024-01-30T01:46:44;18.20;87.30
6439;DHT22;3252;52.540;13.290;2024-01-30T01:48:47;18.20;87.40
6439;DHT22;3252;52.540;13.290;2024-01-30T01:50:51;18.20;87.40
6439;DHT22;3252;52.540;13.290;2024-01-30T01:52:55;18.20;87.50
6439;DHT22;3252;52.540;13.290;2024-01-30T01:54:58;18.20;87.50
6439;DHT22;3252;52.540;13.290;2024-01-30T01:57:00;18.20;87.60
6439;DHT22;3252;52.540;13.290;2024-01-30T01:59:06;18.20;87.70
6439;DHT22;3252;52.540;13.290;2024-01-30T02:01:09;18.20;87.70
6439;DHT22;3252;52.540;13.290;2024-01-30T02:03:10;18.20;87.70
6439;DHT22;3252;52.540;13.290;2024-01-30T02:05:14;18.20;87.80
6439;DHT22;3252;52.540;13.290;2024-01-30T02:07:17;18.20;87.90
6439;DHT22;3252;52.540;13.290;2024-01-30T02:09:19;18.20;88.00
6439;DHT22;3252;52.540;13.290;2024-01-30T02:11:22;18.20;88.00
6439;DHT22;3252;52.540;13.290;2024-01-30T02:13:24;18.10;87.90
6439;DHT22;3252;52.540;13.290;2024-01-30T02:15:27;18.20;88.10
6439;DHT22;3252;52.540;13.290;2024-01-30T02:17:28;18.20;88.10
6439;DHT22;3252;52.540;13.290;2024-01-30T02:19:30;18.20;88.10
6439;DHT22;3252;52.540;13.290;2024-01-30T02:21:33;18.20;88.20
6439;DHT22;3252;52.540;13.290;2024-01-30T02:23:35;18.20;88.20
6439;DHT22;3252;52.540;13.290;2024-01-30T02:25:39;18.10;88.10
6439;DHT22;3252;52.540;13.290;2024-01-30T02:27:44;18.10;88.20
6439;DHT22;3252;52.540;13.290;2024-01-30T02:29:46;18.10;88.20
6439;DHT22;3252;52.540;13.290;2024-01-30T02:31:49;18.10;88.30
6439;DHT22;3252;52.540;13.290;2024-01-30T02:33:51;18.10;88.30
6439;DHT22;3252;52.540;13.290;2024-01-30T02:35:52;18.10;88.30
6439;DHT22;3252;52.540;13.290;2024-01-30T02:37:55;18.10;88.40
6439;DHT22;3252;52.540;13.290;2024-01-30T02:39:57;18.10;88.50
6439;DHT22;3252;52.540;13.290;2024-01-30T02:41:59;18.10;88.40
6439;DHT22;3252;52.540;13.290;2024-01-30T02:44:02;18.10;88.40
6439;DHT22;3252;52.540;13.290;2024-01-30T02:46:04;18.10;88.30
6439;DHT22;3252;52.540;13.290;2024-01-30T02:48:07;18.10;88.30
6439;DHT22;3252;52.540;13.290;2024-01-30T02:50:09;18.10;88.40
6439;DHT22;3252;52.540;13.290;2024-01-30T02:52:11;18.10;88.40
6439;DHT22;3252;52.540;13.290;2024-01-30T02:54:15;18.10;88.40
6439;DHT22;3252;52.540;13.290;2024-01-30T02:56:17;18.10;88.50
6439;DHT22;3252;52.540;13.290;2024-01-30T02:58:19;18.10;88.50
6439;DHT22;3252;52.540;13.290;2024-01-30T03:00:21;18.10;88.60
6439;DHT22;3252;52.540;13.290;2024-01-30T03:02:24;18.10;88.60
6439;DHT22;3252;52.540;13.290;2024-01-30T03:04:25;18.10;88.70
6439;DHT22;3252;52.540;13.290;2024-01-30T03:06:27;18.10;88.70
6439;DHT22;3252;52.540;13.290;2024-01-30T03:08:29;18.10;88.70
6439;DHT22;3252;52.540;13.290;2024-01-30T03:10:33;18.10;88.80
6439;DHT22;3252;52.540;13.290;2024-01-30T03:12:35;18.10;88.80
6439;DHT22;3252;52.540;13.290;2024-01-30T03:14:37;18.10;88.90
6439;DHT22;3252;52.540;13.290;2024-01-30T03:16:39;18.10;88.90
6439;DHT22;3252;52.540;13.290;2024-01-30T03:18:41;18.10;88.80
6439;DHT22;3252;52.540;13.290;2024-01-30T03:20:43;18.10;88.80
6439;DHT22;3252;52.540;13.290;2024-01-30T03:22:45;18.10;88.80
6439;DHT22;3252;52.540;13.290;2024-01-30T03:24:47;18.10;88.90
6439;DHT22;3252;52.540;13.290;2024-01-30T03:26:51;18.10;88.90
6439;DHT22;3252;52.540;13.290;2024-01-30T03:28:53;18.10;88.90
6439;DHT22;3252;52.540;13.290;2024-01-30T03:30:54;18.00;88.90
6439;DHT22;3252;52.540;13.290;2024-01-30T03:32:56;18.00;88.90
6439;DHT22;3252;52.540;13.290;2024-01-30T03:34:58;18.00;88.90
6439;DHT22;3252;52.540;13.290;2024-01-30T03:37:01;18.00;89.00
6439;DHT22;3252;52.540;13.290;2024-01-30T03:39:02;18.00;89.00
6439;DHT22;3252;52.540;13.290;2024-01-30T03:41:07;18.00;89.00
6439;DHT22;3252;52.540;13.290;2024-01-30T03:43:11;18.00;89.00
6439;DHT22;3252;52.540;13.290;2024-01-30T03:45:13;18.00;89.00
6439;DHT22;3252;52.540;13.290;2024-01-30T03:47:15;18.00;89.60
6439;DHT22;3252;52.540;13.290;2024-01-30T03:49:17;18.00;89.00
6439;DHT22;3252;52.540;13.290;2024-01-30T03:51:18;18.00;89.00
6439;DHT22;3252;52.540;13.290;2024-01-30T03:53:20;18.00;89.10
6439;DHT22;3252;52.540;13.290;2024-01-30T03:55:21;18.10;89.20
6439;DHT22;3252;52.540;13.290;2024-01-30T03:57:23;18.10;89.10
6439;DHT22;3252;52.540;13.290;2024-01-30T03:59:27;18.30;88.90
6439;DHT22;3252;52.540;13.290;2024-01-30T04:01:29;18.50;87.90
6439;DHT22;3252;52.540;13.290;2024-01-30T04:03:31;18.80;86.80
6439;DHT22;3252;52.540;13.290;2024-01-30T04:05:33;19.10;85.40
6439;DHT22;3252;52.540;13.290;2024-01-30T04:07:35;19.40;84.10
6439;DHT22;3252;52.540;13.290;2024-01-30T04:09:37;19.60;83.00
6439;DHT22;3252;52.540;13.290;2024-01-30T04:11:40;19.80;82.00
6439;DHT22;3252;52.540;13.290;2024-01-30T04:13:42;20.00;81.30
6439;DHT22;3252;52.540;13.290;2024-01-30T04:15:46;20.20;80.70
6439;DHT22;3252;52.540;13.290;2024-01-30T04:17:48;20.40;80.10
6439;DHT22;3252;52.540;13.290;2024-01-30T04:19:50;20.50;79.50
6439;DHT22;3252;52.540;13.290;2024-01-30T04:21:51;20.60;79.10
6439;DHT22;3252;52.540;13.290;2024-01-30T04:23:53;20.70;78.80
6439;DHT22;3252;52.540;13.290;2024-01-30T04:25:55;20.70;78.40
6439;DHT22;3252;52.540;13.290;2024-01-30T04:27:57;20.80;78.10
6439;DHT22;3252;52.540;13.290;2024-01-30T04:29:59;20.90;78.00
6439;DHT22;3252;52.540;13.290;2024-01-30T04:32:03;21.00;77.70
6439;DHT22;3252;52.540;13.290;2024-01-30T04:34:05;21.00;77.50
6439;DHT22;3252;52.540;13.290;2024-01-30T04:36:08;21.10;77.30
6439;DHT22;3252;52.540;13.290;2024-01-30T04:38:11;21.10;77.20
6439;DHT22;3252;52.540;13.290;2024-01-30T04:40:15;21.20;77.10
6439;DHT22;3252;52.540;13.290;2024-01-30T04:42:17;21.20;77.00
6439;DHT22;3252;52.540;13.290;2024-01-30T04:44:19;21.20;76.70
6439;DHT22;3252;52.540;13.290;2024-01-30T04:46:21;21.30;76.80
6439;DHT22;3252;52.540;13.290;2024-01-30T04:48:25;21.30;76.70
6439;DHT22;3252;52.540;13.290;2024-01-30T04:50:27;21.30;76.70
6439;DHT22;3252;52.540;13.290;2024-01-30T04:52:28;21.30;76.50
6439;DHT22;3252;52.540;13.290;2024-01-30T04:54:30;21.40;76.70
6439;DHT22;3252;52.540;13.290;2024-01-30T04:56:32;21.40;76.70
6439;DHT22;3252;52.540;13.290;2024-01-30T04:58:35;21.30;76.80
6439;DHT22;3252;52.540;13.290;2024-01-30T05:00:37;21.30;77.00
6439;DHT22;3252;52.540;13.290;2024-01-30T05:02:38;21.20;77.20
6439;DHT22;3252;52.540;13.290;2024-01-30T05:04:42;21.20;77.60
6439;DHT22;3252;52.540;13.290;2024-01-30T05:06:45;21.10;77.90
6439;DHT22;3252;52.540;13.290;2024-01-30T05:08:47;21.10;78.00
6439;DHT22;3252;52.540;13.290;2024-01-30T05:10:49;21.20;78.10
6439;DHT22;3252;52.540;13.290;2024-01-30T05:12:51;21.20;78.10
6439;DHT22;3252;52.540;13.290;2024-01-30T05:14:53;21.20;78.00
6439;DHT22;3252;52.540;13.290;2024-01-30T05:16:55;21.30;77.90
6439;DHT22;3252;52.540;13.290;2024-01-30T05:18:58;21.30;77.60
6439;DHT22;3252;52.540;13.290;2024-01-30T05:21:02;21.40;77.60
6439;DHT22;3252;52.540;13.290;2024-01-30T05:23:03;21.40;77.40
6439;DHT22;3252;52.540;13.290;2024-01-30T05:25:06;21.40;77.20
6439;DHT22;3252;52.540;13.290;2024-01-30T05:27:08;21.50;77.50
6439;DHT22;3252;52.540;13.290;2024-01-30T05:29:10;21.50;77.80
6439;DHT22;3252;52.540;13.290;2024-01-30T05:31:12;21.60;77.80
6439;DHT22;3252;52.540;13.290;2024-01-30T05:33:14;21.60;77.60
6439;DHT22;3252;52.540;13.290;2024-01-30T05:35:16;21.60;77.40
6439;DHT22;3252;52.540;13.290;2024-01-30T05:37:19;21.60;77.40
6439;DHT22;3252;52.540;13.290;2024-01-30T05:39:21;21.60;77.60
6439;DHT22;3252;52.540;13.290;2024-01-30T05:41:23;21.60;77.60
6439;DHT22;3252;52.540;13.290;2024-01-30T05:43:25;21.60;78.10
6439;DHT22;3252;52.540;13.290;2024-01-30T05:45:28;21.60;79.00
6439;DHT22;3252;52.540;13.290;2024-01-30T05:47:30;21.60;79.30
6439;DHT22;3252;52.540;13.290;2024-01-30T05:49:32;21.60;79.80
6439;DHT22;3252;52.540;13.290;2024-01-30T05:51:33;21.60;80.10
6439;DHT22;3252;52.540;13.290;2024-01-30T05:53:36;21.50;80.10
6439;DHT22;3252;52.540;13.290;2024-01-30T05:55:39;21.60;80.20
6439;DHT22;3252;52.540;13.290;2024-01-30T05:57:41;21.60;80.50
6439;DHT22;3252;52.540;13.290;2024-01-30T05:59:43;21.50;80.70
6439;DHT22;3252;52.540;13.290;2024-01-30T06:01:48;21.50;81.10
6439;DHT22;3252;52.540;13.290;2024-01-30T06:03:50;21.50;81.30
6439;DHT22;3252;52.540;13.290;2024-01-30T06:05:51;21.40;81.60
6439;DHT22;3252;52.540;13.290;2024-01-30T06:07:53;21.40;81.90
6439;DHT22;3252;52.540;13.290;2024-01-30T06:09:56;21.30;82.10
6439;DHT22;3252;52.540;13.290;2024-01-30T06:12:01;21.30;82.40
6439;DHT22;3252;52.540;13.290;2024-01-30T06:14:03;21.20;82.60
6439;DHT22;3252;52.540;13.290;2024-01-30T06:16:09;21.20;83.00
6439;DHT22;3252;52.540;13.290;2024-01-30T06:18:10;21.10;83.20
6439;DHT22;3252;52.540;13.290;2024-01-30T06:20:12;21.00;83.20
6439;DHT22;3252;52.540;13.290;2024-01-30T06:22:15;20.90;83.50
6439;DHT22;3252;52.540;13.290;2024-01-30T06:24:17;20.90;84.00
6439;DHT22;3252;52.540;13.290;2024-01-30T06:26:21;20.80;84.00
6439;DHT22;3252;52.540;13.290;2024-01-30T06:28:22;20.80;84.20
6439;DHT22;3252;52.540;13.290;2024-01-30T06:30:24;20.80;84.40
6439;DHT22;3252;52.540;13.290;2024-01-30T06:32:26;20.70;84.50
6439;DHT22;3252;52.540;13.290;2024-01-30T06:34:29;20.70;84.60
6439;DHT22;3252;52.540;13.290;2024-01-30T06:36:31;20.60;84.70
6439;DHT22;3252;52.540;13.290;2024-01-30T06:38:32;20.60;84.90
6439;DHT22;3252;52.540;13.290;2024-01-30T06:40:34;20.50;84.90
6439;DHT22;3252;52.540;13.290;2024-01-30T06:42:38;20.50;85.20
6439;DHT22;3252;52.540;13.290;2024-01-30T06:44:39;20.50;85.60
6439;DHT22;3252;52.540;13.290;2024-01-30T06:46:41;20.40;85.70
6439;DHT22;3252;52.540;13.290;2024-01-30T06:48:44;20.40;86.20
6439;DHT22;3252;52.540;13.290;2024-01-30T06:50:46;20.40;86.40
6439;DHT22;3252;52.540;13.290;2024-01-30T06:52:50;20.50;86.50
6439;DHT22;3252;52.540;13.290;2024-01-30T06:54:52;20.50;86.30
6439;DHT22;3252;52.540;13.290;2024-01-30T06:56:54;20.60;86.10
6439;DHT22;3252;52.540;13.290;2024-01-30T06:58:57;20.70;85.70
6439;DHT22;3252;52.540;13.290;2024-01-30T07:01:00;20.80;85.30
6439;DHT22;3252;52.540;13.290;2024-01-30T07:03:03;20.90;85.00
6439;DHT22;3252;52.540;13.290;2024-01-30T07:05:05;21.00;84.80
6439;DHT22;3252;52.540;13.290;2024-01-30T07:07:07;21.00;84.40
6439;DHT22;3252;52.540;13.290;2024-01-30T07:09:13;21.10;84.20
6439;DHT22;3252;52.540;13.290;2024-01-30T07:11:18;21.10;84.20
6439;DHT22;3252;52.540;13.290;2024-01-30T07:13:20;21.10;84.20
6439;DHT22;3252;52.540;13.290;2024-01-30T07:15:24;21.10;84.10
6439;DHT22;3252;52.540;13.290;2024-01-30T07:17:26;21.10;84.20
6439;DHT22;3252;52.540;13.290;2024-01-30T07:19:28;21.10;85.00
6439;DHT22;3252;52.540;13.290;2024-01-30T07:21:30;21.10;85.50
6439;DHT22;3252;52.540;13.290;2024-01-30T07:23:32;21.00;85.40
6439;DHT22;3252;52.540;13.290;2024-01-30T07:25:35;21.00;85.60
6439;DHT22;3252;52.540;13.290;2024-01-30T07:27:37;20.90;85.60
6439;DHT22;3252;52.540;13.290;2024-01-30T07:29:39;20.80;85.80
6439;DHT22;3252;52.540;13.290;2024-01-30T07:31:43;20.80;86.10
6439;DHT22;3252;52.540;13.290;2024-01-30T07:33:45;20.80;86.20
6439;DHT22;3252;52.540;13.290;2024-01-30T07:35:47;20.70;86.30
6439;DHT22;3252;52.540;13.290;2024-01-30T07:37:49;20.70;86.60
6439;DHT22;3252;52.540;13.290;2024-01-30T07:39:51;20.70;86.70
6439;DHT22;3252;52.540;13.290;2024-01-30T07:41:53;20.70;86.70
6439;DHT22;3252;52.540;13.290;2024-01-30T07:43:56;20.80;86.80
6439;DHT22;3252;52.540;13.290;2024-01-30T07:45:58;20.80;86.70
6439;DHT22;3252;52.540;13.290;2024-01-30T07:48:03;20.80;86.40
6439;DHT22;3252;52.540;13.290;2024-01-30T07:50:07;20.90;86.00
6439;DHT22;3252;52.540;13.290;2024-01-30T07:52:09;21.00;85.80
6439;DHT22;3252;52.540;13.290;2024-01-30T07:54:13;21.00;85.70
6439;DHT22;3252;52.540;13.290;2024-01-30T07:56:15;21.10;85.70
6439;DHT22;3252;52.540;13.290;2024-01-30T07:58:17;21.10;85.80
6439;DHT22;3252;52.540;13.290;2024-01-30T08:00:20;21.00;85.90
6439;DHT22;3252;52.540;13.290;2024-01-30T08:02:22;21.00;86.00
6439;DHT22;3252;52.540;13.290;2024-01-30T08:04:26;21.00;86.10
6439;DHT22;3252;52.540;13.290;2024-01-30T08:06:28;20.90;86.30
6439;DHT22;3252;52.540;13.290;2024-01-30T08:08:30;20.90;86.30
6439;DHT22;3252;52.540;13.290;2024-01-30T08:10:31;20.90;86.40
6439;DHT22;3252;52.540;13.290;2024-01-30T08:12:33;20.80;86.80
6439;DHT22;3252;52.540;13.290;2024-01-30T08:14:35;20.80;86.30
6439;DHT22;3252;52.540;13.290;2024-01-30T08:16:37;20.80;90.20
6439;DHT22;3252;52.540;13.290;2024-01-30T08:18:39;20.80;86.30
6439;DHT22;3252;52.540;13.290;2024-01-30T08:20:43;20.80;87.20
6439;DHT22;3252;52.540;13.290;2024-01-30T08:22:45;20.80;85.00
6439;DHT22;3252;52.540;13.290;2024-01-30T08:24:47;20.80;84.20
6439;DHT22;3252;52.540;13.290;2024-01-30T08:26:49;20.80;86.70
6439;DHT22;3252;52.540;13.290;2024-01-30T08:28:50;20.70;83.30
6439;DHT22;3252;52.540;13.290;2024-01-30T08:30:54;20.70;82.80
6439;DHT22;3252;52.540;13.290;2024-01-30T08:32:56;20.70;82.50
6439;DHT22;3252;52.540;13.290;2024-01-30T08:34:57;20.70;82.10
6439;DHT22;3252;52.540;13.290;2024-01-30T08:37:01;20.70;82.10
6439;DHT22;3252;52.540;13.290;2024-01-30T08:39:04;20.70;83.00
6439;DHT22;3252;52.540;13.290;2024-01-30T08:41:07;20.70;81.90
6439;DHT22;3252;52.540;13.290;2024-01-30T08:43:09;20.70;82.10
6439;DHT22;3252;52.540;13.290;2024-01-30T08:45:11;20.80;82.20
6439;DHT22;3252;52.540;13.290;2024-01-30T08:47:14;20.80;82.40
6439;DHT22;3252;52.540;13.290;2024-01-30T08:49:17;20.80;82.40
6439;DHT22;3252;52.540;13.290;2024-01-30T08:51:19;20.90;81.90
6439;DHT22;3252;52.540;13.290;2024-01-30T08:53:22;20.90;81.50
6439;DHT22;3252;52.540;13.290;2024-01-30T08:55:25;21.00;81.80
6439;DHT22;3252;52.540;13.290;2024-01-30T08:57:27;21.00;81.10
6439;DHT22;3252;52.540;13.290;2024-01-30T08:59:30;21.10;81.30
6439;DHT22;3252;52.540;13.290;2024-01-30T09:01:32;21.10;80.00
6439;DHT22;3252;52.540;13.290;2024-01-30T09:03:34;21.20;79.70
6439;DHT22;3252;52.540;13.290;2024-01-30T09:05:37;21.20;78.70
6439;DHT22;3252;52.540;13.290;2024-01-30T09:07:39;21.20;79.80
6439;DHT22;3252;52.540;13.290;2024-01-30T09:09:43;21.30;79.50
6439;DHT22;3252;52.540;13.290;2024-01-30T09:11:45;21.30;79.20
6439;DHT22;3252;52.540;13.290;2024-01-30T09:13:47;21.30;79.50
6439;DHT22;3252;52.540;13.290;2024-01-30T09:15:49;21.40;78.60
6439;DHT22;3252;52.540;13.290;2024-01-30T09:17:50;21.40;79.30
6439;DHT22;3252;52.540;13.290;2024-01-30T09:19:52;21.40;78.60
6439;DHT22;3252;52.540;13.290;2024-01-30T09:21:54;21.40;78.50
6439;DHT22;3252;52.540;13.290;2024-01-30T09:24:01;21.50;78.60
6439;DHT22;3252;52.540;13.290;2024-01-30T09:26:05;21.50;78.50
6439;DHT22;3252;52.540;13.290;2024-01-30T09:28:07;21.50;78.40
6439;DHT22;3252;52.540;13.290;2024-01-30T09:30:10;21.60;78.30
6439;DHT22;3252;52.540;13.290;2024-01-30T09:32:12;21.60;78.30
6439;DHT22;3252;52.540;13.290;2024-01-30T09:34:14;21.60;78.20
6439;DHT22;3252;52.540;13.290;2024-01-30T09:36:16;21.60;78.70
6439;DHT22;3252;52.540;13.290;2024-01-30T09:38:20;21.60;78.00
6439;DHT22;3252;52.540;13.290;2024-01-30T09:40:21;21.70;77.90
6439;DHT22;3252;52.540;13.290;2024-01-30T09:42:28;21.70;77.50
6439;DHT22;3252;52.540;13.290;2024-01-30T09:44:34;21.80;77.60
6439;DHT22;3252;52.540;13.290;2024-01-30T09:46:37;21.90;77.50
6439;DHT22;3252;52.540;13.290;2024-01-30T09:48:41;21.90;77.70
6439;DHT22;3252;52.540;13.290;2024-01-30T09:50:43;22.00;77.60
6439;DHT22;3252;52.540;13.290;2024-01-30T09:52:46;22.10;77.00
6439;DHT22;3252;52.540;13.290;2024-01-30T09:54:49;22.20;77.20
6439;DHT22;3252;52.540;13.290;2024-01-30T09:56:53;22.20;77.00
6439;DHT22;3252;52.540;13.290;2024-01-30T09:58:55;22.30;76.70
6439;DHT22;3252;52.540;13.290;2024-01-30T10:00:57;22.40;77.30
6439;DHT22;3252;52.540;13.290;2024-01-30T10:03:00;22.40;76.30
6439;DHT22;3252;52.540;13.290;2024-01-30T10:05:02;22.50;75.50
6439;DHT22;3252;52.540;13.290;2024-01-30T10:07:04;22.50;75.50
6439;DHT22;3252;52.540;13.290;2024-01-30T10:09:07;22.60;74.90
6439;DHT22;3252;52.540;13.290;2024-01-30T10:11:10;22.60;74.50
6439;DHT22;3252;52.540;13.290;2024-01-30T10:13:12;22.60;74.40
6439;DHT22;3252;52.540;13.290;2024-01-30T10:15:14;22.70;74.20
6439;DHT22;3252;52.540;13.290;2024-01-30T10:17:17;22.70;74.10
6439;DHT22;3252;52.540;13.290;2024-01-30T10:19:20;22.70;74.10
6439;DHT22;3252;52.540;13.290;2024-01-30T10:21:22;22.80;73.90
6439;DHT22;3252;52.540;13.290;2024-01-30T10:23:25;22.80;72.90
6439;DHT22;3252;52.540;13.290;2024-01-30T10:25:27;22.70;53.80
6439;DHT22;3252;52.540;13.290;2024-01-30T10:27:30;22.60;56.30
6439;DHT22;3252;52.540;13.290;2024-01-30T10:29:32;22.60;60.70
6439;DHT22;3252;52.540;13.290;2024-01-30T10:31:36;22.60;62.60
6439;DHT22;3252;52.540;13.290;2024-01-30T10:33:37;22.60;63.20
6439;DHT22;3252;52.540;13.290;2024-01-30T10:35:39;22.60;63.50
6439;DHT22;3252;52.540;13.290;2024-01-30T10:37:43;22.70;64.00
6439;DHT22;3252;52.540;13.290;2024-01-30T10:39:45;22.80;64.60
6439;DHT22;3252;52.540;13.290;2024-01-30T10:41:47;22.80;64.30
6439;DHT22;3252;52.540;13.290;2024-01-30T10:43:58;22.90;65.20
6439;DHT22;3252;52.540;13.290;2024-01-30T10:46:10;23.00;65.10
6439;DHT22;3252;52.540;13.290;2024-01-30T10:48:15;23.10;65.40
6439;DHT22;3252;52.540;13.290;2024-01-30T10:50:20;23.10;65.30
6439;DHT22;3252;52.540;13.290;2024-01-30T10:52:23;23.20;65.00
6439;DHT22;3252;52.540;13.290;2024-01-30T10:54:26;23.20;64.80
6439;DHT22;3252;52.540;13.290;2024-01-30T10:56:29;23.30;65.40
6439;DHT22;3252;52.540;13.290;2024-01-30T10:58:34;23.30;65.60
6439;DHT22;3252;52.540;13.290;2024-01-30T11:00:36;23.30;65.70
6439;DHT22;3252;52.540;13.290;2024-01-30T11:02:40;23.40;65.10
6439;DHT22;3252;52.540;13.290;2024-01-30T11:04:43;23.40;65.70
6439;DHT22;3252;52.540;13.290;2024-01-30T11:06:49;23.40;74.10
6439;DHT22;3252;52.540;13.290;2024-01-30T11:09:01;23.30;70.20
6439;DHT22;3252;52.540;13.290;2024-01-30T11:11:09;23.20;65.80
6439;DHT22;3252;52.540;13.290;2024-01-30T11:13:13;23.10;68.30
6439;DHT22;3252;52.540;13.290;2024-01-30T11:15:16;23.10;68.80
6439;DHT22;3252;52.540;13.290;2024-01-30T11:17:18;23.10;68.10
6439;DHT22;3252;52.540;13.290;2024-01-30T11:19:23;23.10;68.20
6439;DHT22;3252;52.540;13.290;2024-01-30T11:21:28;23.10;68.50
6439;DHT22;3252;52.540;13.290;2024-01-30T11:23:33;23.10;68.60
6439;DHT22;3252;52.540;13.290;2024-01-30T11:25:36;23.10;68.60
6439;DHT22;3252;52.540;13.290;2024-01-30T11:27:38;23.10;68.80
6439;DHT22;3252;52.540;13.290;2024-01-30T11:29:41;23.10;69.60
6439;DHT22;3252;52.540;13.290;2024-01-30T11:31:51;23.00;69.60
6439;DHT22;3252;52.540;13.290;2024-01-30T11:33:54;23.00;69.90
6439;DHT22;3252;52.540;13.290;2024-01-30T11:35:57;23.00;70.10
6439;DHT22;3252;52.540;13.290;2024-01-30T11:38:01;23.00;70.40
6439;DHT22;3252;52.540;13.290;2024-01-30T11:40:05;22.90;70.30
6439;DHT22;3252;52.540;13.290;2024-01-30T11:42:08;22.90;70.30
6439;DHT22;3252;52.540;13.290;2024-01-30T11:44:10;22.80;70.60
6439;DHT22;3252;52.540;13.290;2024-01-30T11:46:12;22.80;70.80
6439;DHT22;3252;52.540;13.290;2024-01-30T11:48:15;22.80;70.50
6439;DHT22;3252;52.540;13.290;2024-01-30T11:50:17;22.70;70.50
6439;DHT22;3252;52.540;13.290;2024-01-30T11:52:19;22.70;70.60
6439;DHT22;3252;52.540;13.290;2024-01-30T11:54:22;22.70;71.00
6439;DHT22;3252;52.540;13.290;2024-01-30T11:56:24;22.60;70.50
6439;DHT22;3252;52.540;13.290;2024-01-30T11:58:27;22.60;70.50
6439;DHT22;3252;52.540;13.290;2024-01-30T12:00:29;22.60;70.20
6439;DHT22;3252;52.540;13.290;2024-01-30T12:02:31;22.60;70.00
6439;DHT22;3252;52.540;13.290;2024-01-30T12:04:33;22.60;70.40
6439;DHT22;3252;52.540;13.290;2024-01-30T12:06:35;22.60;70.50
6439;DHT22;3252;52.540;13.290;2024-01-30T12:08:37;22.60;70.20
6439;DHT22;3252;52.540;13.290;2024-01-30T12:10:40;22.60;70.50
6439;DHT22;3252;52.540;13.290;2024-01-30T12:12:44;22.60;70.70
6439;DHT22;3252;52.540;13.290;2024-01-30T12:14:47;22.50;70.70
6439;DHT22;3252;52.540;13.290;2024-01-30T12:16:48;22.50;70.90
6439;DHT22;3252;52.540;13.290;2024-01-30T12:18:59;22.50;71.10
6439;DHT22;3252;52.540;13.290;2024-01-30T12:21:01;22.50;71.50
6439;DHT22;3252;52.540;13.290;2024-01-30T12:23:04;22.50;71.10
6439;DHT22;3252;52.540;13.290;2024-01-30T12:25:08;22.50;71.10
6439;DHT22;3252;52.540;13.290;2024-01-30T12:27:11;22.50;71.70
6439;DHT22;3252;52.540;13.290;2024-01-30T12:29:16;22.50;71.30
6439;DHT22;3252;52.540;13.290;2024-01-30T12:31:18;22.50;71.70
6439;DHT22;3252;52.540;13.290;2024-01-30T12:33:27;22.50;71.60
6439;DHT22;3252;52.540;13.290;2024-01-30T12:35:29;22.50;72.00
6439;DHT22;3252;52.540;13.290;2024-01-30T12:37:31;22.40;71.20
6439;DHT22;3252;52.540;13.290;2024-01-30T12:39:33;22.40;69.70
6439;DHT22;3252;52.540;13.290;2024-01-30T12:41:36;22.40;70.30
6439;DHT22;3252;52.540;13.290;2024-01-30T12:43:39;22.40;68.30
6439;DHT22;3252;52.540;13.290;2024-01-30T12:45:41;22.40;56.30
6439;DHT22;3252;52.540;13.290;2024-01-30T12:47:43;22.30;56.30
6439;DHT22;3252;52.540;13.290;2024-01-30T12:49:45;22.30;61.30
6439;DHT22;3252;52.540;13.290;2024-01-30T12:51:47;22.30;63.40
6439;DHT22;3252;52.540;13.290;2024-01-30T12:53:49;22.20;64.50
6439;DHT22;3252;52.540;13.290;2024-01-30T12:55:51;22.20;64.70
6439;DHT22;3252;52.540;13.290;2024-01-30T12:57:55;22.20;65.80
6439;DHT22;3252;52.540;13.290;2024-01-30T12:59:59;22.20;66.70
6439;DHT22;3252;52.540;13.290;2024-01-30T13:02:01;22.20;67.80
6439;DHT22;3252;52.540;13.290;2024-01-30T13:04:04;22.20;67.60
6439;DHT22;3252;52.540;13.290;2024-01-30T13:06:06;22.20;67.60